sensor_id;sensor_type;location;lat;lon;timestamp;P1;durP1;ratioP1;P2;durP2;ratioP2
51292;SDS011;37377;45.186;9.778;2022-12-05T00:00:27;76.72;;;53.25;;
51292;SDS011;37377;45.186;9.778;2022-12-05T00:02:53;64.85;;;49.47;;
51292;SDS011;37377;45.186;9.778;2022-12-05T00:05:20;64.95;;;46.30;;
51292;SDS011;37377;45.186;9.778;2022-12-05T00:07:48;56.45;;;43.80;;
51292;SDS011;37377;45.186;9.778;2022-12-05T00:10:16;57.55;;;45.72;;
51292;SDS011;37377;45.186;9.778;2022-12-05T00:12:42;54.40;;;42.38;;
51292;SDS011;37377;45.186;9.778;2022-12-05T00:15:09;56.72;;;43.83;;
51292;SDS011;37377;45.186;9.778;2022-12-05T00:17:38;49.58;;;41.33;;
51292;SDS011;37377;45.186;9.778;2022-12-05T00:20:06;54.75;;;42.70;;
51292;SDS011;37377;45.186;9.778;2022-12-05T00:22:34;53.92;;;43.25;;
51292;SDS011;37377;45.186;9.778;2022-12-05T00:25:01;51.10;;;42.58;;
51292;SDS011;37377;45.186;9.778;2022-12-05T00:27:28;54.15;;;40.92;;
51292;SDS011;37377;45.186;9.778;2022-12-05T00:29:55;52.92;;;43.17;;
51292;SDS011;37377;45.186;9.778;2022-12-05T00:32:23;57.47;;;44.28;;
51292;SDS011;37377;45.186;9.778;2022-12-05T00:34:49;51.03;;;41.20;;
51292;SDS011;37377;45.186;9.778;2022-12-05T00:37:16;47.20;;;38.63;;
51292;SDS011;37377;45.186;9.778;2022-12-05T00:39:43;44.22;;;37.47;;
51292;SDS011;37377;45.186;9.778;2022-12-05T00:42:10;48.83;;;38.85;;
51292;SDS011;37377;45.186;9.778;2022-12-05T00:44:36;45.92;;;38.38;;
51292;SDS011;37377;45.186;9.778;2022-12-05T00:47:03;48.38;;;37.67;;
51292;SDS011;37377;45.186;9.778;2022-12-05T00:49:30;50.50;;;37.97;;
51292;SDS011;37377;45.186;9.778;2022-12-05T00:51:56;46.95;;;37.67;;
51292;SDS011;37377;45.186;9.778;2022-12-05T00:54:23;42.38;;;34.78;;
51292;SDS011;37377;45.186;9.778;2022-12-05T00:56:50;42.80;;;35.83;;
51292;SDS011;37377;45.186;9.778;2022-12-05T00:59:21;49.25;;;39.47;;
51292;SDS011;37377;45.186;9.778;2022-12-05T01:01:48;58.10;;;44.03;;
51292;SDS011;37377;45.186;9.778;2022-12-05T01:04:16;62.17;;;44.38;;
51292;SDS011;37377;45.186;9.778;2022-12-05T01:06:44;65.47;;;46.33;;
51292;SDS011;37377;45.186;9.778;2022-12-05T01:09:15;63.95;;;44.58;;
51292;SDS011;37377;45.186;9.778;2022-12-05T01:11:42;57.92;;;42.03;;
51292;SDS011;37377;45.186;9.778;2022-12-05T01:14:09;51.42;;;40.40;;
51292;SDS011;37377;45.186;9.778;2022-12-05T01:16:38;53.47;;;40.70;;
51292;SDS011;37377;45.186;9.778;2022-12-05T01:19:06;58.50;;;42.97;;
51292;SDS011;37377;45.186;9.778;2022-12-05T01:21:33;59.90;;;43.45;;
51292;SDS011;37377;45.186;9.778;2022-12-05T01:24:00;57.95;;;42.63;;
51292;SDS011;37377;45.186;9.778;2022-12-05T01:26:27;57.13;;;42.00;;
51292;SDS011;37377;45.186;9.778;2022-12-05T01:28:54;61.83;;;44.63;;
51292;SDS011;37377;45.186;9.778;2022-12-05T01:31:25;69.30;;;46.22;;
51292;SDS011;37377;45.186;9.778;2022-12-05T01:33:53;76.90;;;47.83;;
51292;SDS011;37377;45.186;9.778;2022-12-05T01:36:21;84.95;;;51.00;;
51292;SDS011;37377;45.186;9.778;2022-12-05T01:38:48;93.35;;;54.00;;
51292;SDS011;37377;45.186;9.778;2022-12-05T01:41:17;92.13;;;52.75;;
51292;SDS011;37377;45.186;9.778;2022-12-05T01:43:54;90.47;;;51.42;;
51292;SDS011;37377;45.186;9.778;2022-12-05T01:46:21;96.40;;;53.17;;
51292;SDS011;37377;45.186;9.778;2022-12-05T01:48:48;90.85;;;53.35;;
51292;SDS011;37377;45.186;9.778;2022-12-05T01:51:16;87.22;;;51.25;;
51292;SDS011;37377;45.186;9.778;2022-12-05T01:53:43;81.53;;;49.08;;
51292;SDS011;37377;45.186;9.778;2022-12-05T01:56:10;84.15;;;48.85;;
51292;SDS011;37377;45.186;9.778;2022-12-05T01:58:38;74.40;;;48.45;;
51292;SDS011;37377;45.186;9.778;2022-12-05T02:01:07;83.30;;;50.50;;
51292;SDS011;37377;45.186;9.778;2022-12-05T02:03:34;83.93;;;49.30;;
51292;SDS011;37377;45.186;9.778;2022-12-05T02:06:01;80.68;;;49.63;;
51292;SDS011;37377;45.186;9.778;2022-12-05T02:08:29;81.00;;;50.72;;
51292;SDS011;37377;45.186;9.778;2022-12-05T02:10:56;84.28;;;51.00;;
51292;SDS011;37377;45.186;9.778;2022-12-05T02:21:30;82.22;;;48.92;;
51292;SDS011;37377;45.186;9.778;2022-12-05T02:26:32;74.47;;;46.67;;
51292;SDS011;37377;45.186;9.778;2022-12-05T02:31:43;53.28;;;38.50;;
51292;SDS011;37377;45.186;9.778;2022-12-05T02:34:52;48.17;;;36.08;;
51292;SDS011;37377;45.186;9.778;2022-12-05T02:37:13;49.50;;;34.83;;
51292;SDS011;37377;45.186;9.778;2022-12-05T02:42:19;55.95;;;37.55;;
51292;SDS011;37377;45.186;9.778;2022-12-05T02:44:55;61.33;;;39.13;;
51292;SDS011;37377;45.186;9.778;2022-12-05T02:47:24;63.83;;;41.75;;
51292;SDS011;37377;45.186;9.778;2022-12-05T02:49:51;63.70;;;39.38;;
51292;SDS011;37377;45.186;9.778;2022-12-05T02:52:19;60.25;;;40.13;;
51292;SDS011;37377;45.186;9.778;2022-12-05T02:54:47;68.10;;;42.45;;
51292;SDS011;37377;45.186;9.778;2022-12-05T02:57:14;57.05;;;38.05;;
51292;SDS011;37377;45.186;9.778;2022-12-05T02:59:42;58.80;;;40.03;;
51292;SDS011;37377;45.186;9.778;2022-12-05T03:02:20;60.55;;;38.75;;
51292;SDS011;37377;45.186;9.778;2022-12-05T03:04:48;58.03;;;38.90;;
51292;SDS011;37377;45.186;9.778;2022-12-05T03:07:15;54.33;;;36.53;;
51292;SDS011;37377;45.186;9.778;2022-12-05T03:09:45;51.63;;;35.10;;
51292;SDS011;37377;45.186;9.778;2022-12-05T03:14:43;36.15;;;27.48;;
51292;SDS011;37377;45.186;9.778;2022-12-05T03:17:19;32.95;;;26.65;;
51292;SDS011;37377;45.186;9.778;2022-12-05T03:22:17;30.60;;;24.58;;
51292;SDS011;37377;45.186;9.778;2022-12-05T03:24:46;30.42;;;24.45;;
51292;SDS011;37377;45.186;9.778;2022-12-05T03:29:49;30.75;;;24.65;;
51292;SDS011;37377;45.186;9.778;2022-12-05T03:37:26;29.95;;;24.13;;
51292;SDS011;37377;45.186;9.778;2022-12-05T03:40:03;26.02;;;21.23;;
51292;SDS011;37377;45.186;9.778;2022-12-05T03:42:32;25.08;;;21.35;;
51292;SDS011;37377;45.186;9.778;2022-12-05T03:45:02;25.70;;;21.05;;
51292;SDS011;37377;45.186;9.778;2022-12-05T03:47:37;24.17;;;20.15;;
51292;SDS011;37377;45.186;9.778;2022-12-05T03:50:14;30.20;;;23.10;;
51292;SDS011;37377;45.186;9.778;2022-12-05T03:52:46;38.17;;;25.90;;
51292;SDS011;37377;45.186;9.778;2022-12-05T03:55:35;35.88;;;25.88;;
51292;SDS011;37377;45.186;9.778;2022-12-05T03:58:11;38.13;;;26.92;;
51292;SDS011;37377;45.186;9.778;2022-12-05T04:00:41;40.22;;;29.27;;
51292;SDS011;37377;45.186;9.778;2022-12-05T04:03:12;42.90;;;30.38;;
51292;SDS011;37377;45.186;9.778;2022-12-05T04:05:44;49.00;;;32.17;;
51292;SDS011;37377;45.186;9.778;2022-12-05T04:10:39;38.10;;;28.42;;
51292;SDS011;37377;45.186;9.778;2022-12-05T04:13:18;38.78;;;27.55;;
51292;SDS011;37377;45.186;9.778;2022-12-05T04:21:52;39.38;;;30.23;;
51292;SDS011;37377;45.186;9.778;2022-12-05T04:24:22;35.88;;;28.17;;
51292;SDS011;37377;45.186;9.778;2022-12-05T04:27:11;40.05;;;31.90;;
51292;SDS011;37377;45.186;9.778;2022-12-05T04:32:19;43.13;;;30.67;;
51292;SDS011;37377;45.186;9.778;2022-12-05T04:34:49;39.20;;;30.55;;
51292;SDS011;37377;45.186;9.778;2022-12-05T04:37:18;33.22;;;27.42;;
51292;SDS011;37377;45.186;9.778;2022-12-05T04:39:56;30.52;;;25.55;;
51292;SDS011;37377;45.186;9.778;2022-12-05T04:42:25;35.42;;;26.83;;
51292;SDS011;37377;45.186;9.778;2022-12-05T04:44:54;30.52;;;24.10;;
51292;SDS011;37377;45.186;9.778;2022-12-05T04:47:22;33.53;;;26.77;;
51292;SDS011;37377;45.186;9.778;2022-12-05T04:49:51;34.13;;;26.55;;
51292;SDS011;37377;45.186;9.778;2022-12-05T04:52:19;32.53;;;22.88;;
51292;SDS011;37377;45.186;9.778;2022-12-05T04:59:46;21.33;;;18.92;;
51292;SDS011;37377;45.186;9.778;2022-12-05T05:02:14;19.83;;;17.73;;
51292;SDS011;37377;45.186;9.778;2022-12-05T05:04:43;19.30;;;17.30;;
51292;SDS011;37377;45.186;9.778;2022-12-05T05:07:11;20.02;;;17.85;;
51292;SDS011;37377;45.186;9.778;2022-12-05T05:09:38;20.38;;;18.33;;
51292;SDS011;37377;45.186;9.778;2022-12-05T05:12:05;18.65;;;16.88;;
51292;SDS011;37377;45.186;9.778;2022-12-05T05:14:32;22.30;;;18.20;;
51292;SDS011;37377;45.186;9.778;2022-12-05T05:16:59;25.67;;;22.35;;
51292;SDS011;37377;45.186;9.778;2022-12-05T05:19:25;26.13;;;22.02;;
51292;SDS011;37377;45.186;9.778;2022-12-05T05:21:52;25.92;;;21.55;;
51292;SDS011;37377;45.186;9.778;2022-12-05T05:24:19;24.17;;;21.30;;
51292;SDS011;37377;45.186;9.778;2022-12-05T05:26:49;23.23;;;19.88;;
51292;SDS011;37377;45.186;9.778;2022-12-05T05:29:22;19.70;;;17.65;;
51292;SDS011;37377;45.186;9.778;2022-12-05T05:31:49;22.25;;;19.85;;
51292;SDS011;37377;45.186;9.778;2022-12-05T05:34:16;28.38;;;21.80;;
51292;SDS011;37377;45.186;9.778;2022-12-05T05:36:42;28.98;;;23.90;;
51292;SDS011;37377;45.186;9.778;2022-12-05T05:39:13;26.65;;;23.02;;
51292;SDS011;37377;45.186;9.778;2022-12-05T05:41:41;29.67;;;24.10;;
51292;SDS011;37377;45.186;9.778;2022-12-05T05:44:08;28.02;;;23.42;;
51292;SDS011;37377;45.186;9.778;2022-12-05T05:46:35;25.30;;;22.25;;
51292;SDS011;37377;45.186;9.778;2022-12-05T05:49:02;26.85;;;22.52;;
51292;SDS011;37377;45.186;9.778;2022-12-05T05:51:29;27.55;;;23.42;;
51292;SDS011;37377;45.186;9.778;2022-12-05T05:53:56;26.25;;;21.92;;
51292;SDS011;37377;45.186;9.778;2022-12-05T05:56:23;24.30;;;21.13;;
51292;SDS011;37377;45.186;9.778;2022-12-05T05:58:54;27.98;;;21.17;;
51292;SDS011;37377;45.186;9.778;2022-12-05T06:01:22;24.05;;;21.45;;
51292;SDS011;37377;45.186;9.778;2022-12-05T06:03:49;25.08;;;21.70;;
51292;SDS011;37377;45.186;9.778;2022-12-05T06:06:17;23.92;;;20.52;;
51292;SDS011;37377;45.186;9.778;2022-12-05T06:08:44;21.90;;;19.65;;
51292;SDS011;37377;45.186;9.778;2022-12-05T06:11:12;23.73;;;20.92;;
51292;SDS011;37377;45.186;9.778;2022-12-05T06:13:39;24.45;;;21.75;;
51292;SDS011;37377;45.186;9.778;2022-12-05T06:16:06;24.00;;;21.42;;
51292;SDS011;37377;45.186;9.778;2022-12-05T06:18:34;24.10;;;21.55;;
51292;SDS011;37377;45.186;9.778;2022-12-05T06:21:00;25.42;;;22.20;;
51292;SDS011;37377;45.186;9.778;2022-12-05T06:23:30;25.80;;;22.88;;
51292;SDS011;37377;45.186;9.778;2022-12-05T06:25:56;29.38;;;23.95;;
51292;SDS011;37377;45.186;9.778;2022-12-05T06:28:23;27.73;;;22.77;;
51292;SDS011;37377;45.186;9.778;2022-12-05T06:30:51;25.65;;;21.95;;
51292;SDS011;37377;45.186;9.778;2022-12-05T06:33:18;29.52;;;23.33;;
51292;SDS011;37377;45.186;9.778;2022-12-05T06:35:45;25.90;;;23.10;;
51292;SDS011;37377;45.186;9.778;2022-12-05T06:38:12;26.10;;;22.40;;
51292;SDS011;37377;45.186;9.778;2022-12-05T06:40:42;26.42;;;22.80;;
51292;SDS011;37377;45.186;9.778;2022-12-05T06:43:10;26.63;;;22.42;;
51292;SDS011;37377;45.186;9.778;2022-12-05T06:45:37;30.45;;;25.17;;
51292;SDS011;37377;45.186;9.778;2022-12-05T06:48:05;32.22;;;24.33;;
51292;SDS011;37377;45.186;9.778;2022-12-05T06:50:32;30.23;;;24.35;;
51292;SDS011;37377;45.186;9.778;2022-12-05T06:53:05;31.17;;;24.75;;
51292;SDS011;37377;45.186;9.778;2022-12-05T06:55:33;34.22;;;24.80;;
51292;SDS011;37377;45.186;9.778;2022-12-05T06:58:06;28.55;;;24.58;;
51292;SDS011;37377;45.186;9.778;2022-12-05T07:00:34;27.85;;;24.27;;
51292;SDS011;37377;45.186;9.778;2022-12-05T07:03:26;31.58;;;25.65;;
51292;SDS011;37377;45.186;9.778;2022-12-05T07:05:54;35.03;;;25.02;;
51292;SDS011;37377;45.186;9.778;2022-12-05T07:08:25;35.97;;;26.70;;
51292;SDS011;37377;45.186;9.778;2022-12-05T07:10:57;32.88;;;25.90;;
51292;SDS011;37377;45.186;9.778;2022-12-05T07:13:34;31.63;;;25.30;;
51292;SDS011;37377;45.186;9.778;2022-12-05T07:16:07;31.42;;;25.33;;
51292;SDS011;37377;45.186;9.778;2022-12-05T07:18:34;33.72;;;25.88;;
51292;SDS011;37377;45.186;9.778;2022-12-05T07:21:09;34.60;;;25.80;;
51292;SDS011;37377;45.186;9.778;2022-12-05T07:23:44;31.77;;;25.70;;
51292;SDS011;37377;45.186;9.778;2022-12-05T07:26:13;33.13;;;26.65;;
51292;SDS011;37377;45.186;9.778;2022-12-05T07:28:40;34.25;;;26.48;;
51292;SDS011;37377;45.186;9.778;2022-12-05T07:31:13;32.58;;;24.88;;
51292;SDS011;37377;45.186;9.778;2022-12-05T07:33:49;35.80;;;28.50;;
51292;SDS011;37377;45.186;9.778;2022-12-05T07:36:22;37.45;;;27.08;;
51292;SDS011;37377;45.186;9.778;2022-12-05T07:38:55;35.65;;;25.88;;
51292;SDS011;37377;45.186;9.778;2022-12-05T07:41:23;34.75;;;26.23;;
51292;SDS011;37377;45.186;9.778;2022-12-05T07:43:51;36.10;;;25.27;;
51292;SDS011;37377;45.186;9.778;2022-12-05T07:46:23;33.38;;;26.50;;
51292;SDS011;37377;45.186;9.778;2022-12-05T07:48:51;37.80;;;26.35;;
51292;SDS011;37377;45.186;9.778;2022-12-05T07:51:19;35.08;;;26.80;;
51292;SDS011;37377;45.186;9.778;2022-12-05T07:53:50;34.30;;;26.25;;
51292;SDS011;37377;45.186;9.778;2022-12-05T07:56:17;42.40;;;30.65;;
51292;SDS011;37377;45.186;9.778;2022-12-05T07:58:46;37.30;;;27.17;;
51292;SDS011;37377;45.186;9.778;2022-12-05T08:01:18;44.58;;;26.08;;
51292;SDS011;37377;45.186;9.778;2022-12-05T08:03:46;38.70;;;26.00;;
51292;SDS011;37377;45.186;9.778;2022-12-05T08:06:14;41.97;;;28.67;;
51292;SDS011;37377;45.186;9.778;2022-12-05T08:08:49;41.95;;;28.80;;
51292;SDS011;37377;45.186;9.778;2022-12-05T08:11:25;39.33;;;28.35;;
51292;SDS011;37377;45.186;9.778;2022-12-05T08:13:57;43.88;;;29.00;;
51292;SDS011;37377;45.186;9.778;2022-12-05T08:16:26;44.70;;;29.23;;
51292;SDS011;37377;45.186;9.778;2022-12-05T08:18:53;43.47;;;31.50;;
51292;SDS011;37377;45.186;9.778;2022-12-05T08:21:25;44.55;;;31.25;;
51292;SDS011;37377;45.186;9.778;2022-12-05T08:23:58;40.10;;;28.97;;
51292;SDS011;37377;45.186;9.778;2022-12-05T08:26:28;42.45;;;29.45;;
51292;SDS011;37377;45.186;9.778;2022-12-05T08:28:56;44.80;;;29.88;;
51292;SDS011;37377;45.186;9.778;2022-12-05T08:31:29;45.00;;;29.45;;
51292;SDS011;37377;45.186;9.778;2022-12-05T08:33:57;44.70;;;29.65;;
51292;SDS011;37377;45.186;9.778;2022-12-05T08:36:30;44.97;;;30.70;;
51292;SDS011;37377;45.186;9.778;2022-12-05T08:39:03;44.40;;;29.35;;
51292;SDS011;37377;45.186;9.778;2022-12-05T08:41:31;43.47;;;29.45;;
51292;SDS011;37377;45.186;9.778;2022-12-05T08:44:00;43.25;;;28.10;;
51292;SDS011;37377;45.186;9.778;2022-12-05T08:46:30;37.50;;;27.48;;
51292;SDS011;37377;45.186;9.778;2022-12-05T08:48:57;37.88;;;25.73;;
51292;SDS011;37377;45.186;9.778;2022-12-05T08:51:30;40.45;;;28.33;;
51292;SDS011;37377;45.186;9.778;2022-12-05T08:53:58;39.97;;;29.05;;
51292;SDS011;37377;45.186;9.778;2022-12-05T08:56:26;44.00;;;29.73;;
51292;SDS011;37377;45.186;9.778;2022-12-05T08:58:56;47.67;;;31.02;;
51292;SDS011;37377;45.186;9.778;2022-12-05T09:01:32;47.60;;;31.20;;
51292;SDS011;37377;45.186;9.778;2022-12-05T09:04:04;44.55;;;30.05;;
51292;SDS011;37377;45.186;9.778;2022-12-05T09:06:34;45.20;;;30.45;;
51292;SDS011;37377;45.186;9.778;2022-12-05T09:09:03;46.15;;;30.17;;
51292;SDS011;37377;45.186;9.778;2022-12-05T09:11:38;48.58;;;28.70;;
51292;SDS011;37377;45.186;9.778;2022-12-05T09:14:07;53.22;;;32.20;;
51292;SDS011;37377;45.186;9.778;2022-12-05T09:16:40;52.00;;;32.78;;
51292;SDS011;37377;45.186;9.778;2022-12-05T09:19:16;48.37;;;31.13;;
51292;SDS011;37377;45.186;9.778;2022-12-05T09:21:47;51.47;;;30.40;;
51292;SDS011;37377;45.186;9.778;2022-12-05T09:24:18;47.30;;;29.33;;
51292;SDS011;37377;45.186;9.778;2022-12-05T09:26:48;46.92;;;29.27;;
51292;SDS011;37377;45.186;9.778;2022-12-05T09:29:15;49.97;;;31.65;;
51292;SDS011;37377;45.186;9.778;2022-12-05T09:31:45;68.38;;;35.25;;
51292;SDS011;37377;45.186;9.778;2022-12-05T09:34:16;49.67;;;31.52;;
51292;SDS011;37377;45.186;9.778;2022-12-05T09:36:45;45.95;;;29.40;;
51292;SDS011;37377;45.186;9.778;2022-12-05T09:39:27;40.03;;;25.85;;
51292;SDS011;37377;45.186;9.778;2022-12-05T09:42:08;41.85;;;24.60;;
51292;SDS011;37377;45.186;9.778;2022-12-05T09:44:55;32.85;;;21.55;;
51292;SDS011;37377;45.186;9.778;2022-12-05T09:47:29;40.20;;;23.58;;
51292;SDS011;37377;45.186;9.778;2022-12-05T09:50:16;38.10;;;23.45;;
51292;SDS011;37377;45.186;9.778;2022-12-05T09:55:35;38.45;;;24.05;;
51292;SDS011;37377;45.186;9.778;2022-12-05T09:58:16;42.78;;;24.13;;
51292;SDS011;37377;45.186;9.778;2022-12-05T10:00:45;39.78;;;22.92;;
51292;SDS011;37377;45.186;9.778;2022-12-05T10:08:37;50.55;;;27.73;;
51292;SDS011;37377;45.186;9.778;2022-12-05T10:11:15;48.58;;;26.00;;
51292;SDS011;37377;45.186;9.778;2022-12-05T10:16:51;51.47;;;28.35;;
51292;SDS011;37377;45.186;9.778;2022-12-05T10:19:43;46.55;;;25.48;;
51292;SDS011;37377;45.186;9.778;2022-12-05T10:22:21;59.45;;;26.77;;
51292;SDS011;37377;45.186;9.778;2022-12-05T10:24:51;66.68;;;36.67;;
51292;SDS011;37377;45.186;9.778;2022-12-05T10:27:24;60.70;;;33.20;;
51292;SDS011;37377;45.186;9.778;2022-12-05T10:29:57;54.38;;;27.88;;
51292;SDS011;37377;45.186;9.778;2022-12-05T10:32:29;60.22;;;29.98;;
51292;SDS011;37377;45.186;9.778;2022-12-05T10:35:11;53.80;;;26.83;;
51292;SDS011;37377;45.186;9.778;2022-12-05T10:37:42;49.10;;;26.60;;
51292;SDS011;37377;45.186;9.778;2022-12-05T10:40:14;49.70;;;27.17;;
51292;SDS011;37377;45.186;9.778;2022-12-05T10:42:42;50.13;;;26.83;;
51292;SDS011;37377;45.186;9.778;2022-12-05T10:45:14;52.33;;;26.00;;
51292;SDS011;37377;45.186;9.778;2022-12-05T10:47:45;50.13;;;25.27;;
51292;SDS011;37377;45.186;9.778;2022-12-05T10:52:46;69.68;;;28.55;;
51292;SDS011;37377;45.186;9.778;2022-12-05T10:55:21;48.35;;;25.48;;
51292;SDS011;37377;45.186;9.778;2022-12-05T11:00:56;51.65;;;27.00;;
51292;SDS011;37377;45.186;9.778;2022-12-05T11:03:30;51.63;;;26.67;;
51292;SDS011;37377;45.186;9.778;2022-12-05T11:05:59;51.45;;;27.65;;
51292;SDS011;37377;45.186;9.778;2022-12-05T11:08:30;56.10;;;27.40;;
51292;SDS011;37377;45.186;9.778;2022-12-05T11:13:58;57.33;;;26.70;;
51292;SDS011;37377;45.186;9.778;2022-12-05T11:16:33;50.80;;;26.33;;
51292;SDS011;37377;45.186;9.778;2022-12-05T11:21:49;49.55;;;24.80;;
51292;SDS011;37377;45.186;9.778;2022-12-05T11:24:30;48.40;;;25.27;;
51292;SDS011;37377;45.186;9.778;2022-12-05T11:29:43;48.20;;;24.73;;
51292;SDS011;37377;45.186;9.778;2022-12-05T11:32:20;48.78;;;25.33;;
51292;SDS011;37377;45.186;9.778;2022-12-05T11:35:06;53.10;;;27.73;;
51292;SDS011;37377;45.186;9.778;2022-12-05T11:37:41;52.05;;;26.88;;
51292;SDS011;37377;45.186;9.778;2022-12-05T11:40:14;43.60;;;25.13;;
51292;SDS011;37377;45.186;9.778;2022-12-05T11:56:10;47.47;;;23.80;;
51292;SDS011;37377;45.186;9.778;2022-12-05T12:13:13;43.85;;;23.85;;
51292;SDS011;37377;45.186;9.778;2022-12-05T12:15:57;49.08;;;26.70;;
51292;SDS011;37377;45.186;9.778;2022-12-05T12:21:16;43.53;;;23.50;;
51292;SDS011;37377;45.186;9.778;2022-12-05T12:24:11;45.28;;;21.70;;
51292;SDS011;37377;45.186;9.778;2022-12-05T12:26:54;41.50;;;22.02;;
51292;SDS011;37377;45.186;9.778;2022-12-05T12:29:29;41.65;;;22.85;;
51292;SDS011;37377;45.186;9.778;2022-12-05T12:42:55;44.63;;;23.10;;
51292;SDS011;37377;45.186;9.778;2022-12-05T12:50:41;49.78;;;23.70;;
51292;SDS011;37377;45.186;9.778;2022-12-05T12:53:19;47.13;;;23.88;;
51292;SDS011;37377;45.186;9.778;2022-12-05T12:56:50;52.00;;;23.88;;
51292;SDS011;37377;45.186;9.778;2022-12-05T13:04:17;49.00;;;25.33;;
51292;SDS011;37377;45.186;9.778;2022-12-05T13:06:50;46.05;;;23.90;;
51292;SDS011;37377;45.186;9.778;2022-12-05T13:09:28;40.95;;;22.67;;
51292;SDS011;37377;45.186;9.778;2022-12-05T13:11:59;36.35;;;21.33;;
51292;SDS011;37377;45.186;9.778;2022-12-05T13:14:28;44.42;;;24.20;;
51292;SDS011;37377;45.186;9.778;2022-12-05T13:16:59;48.33;;;24.48;;
51292;SDS011;37377;45.186;9.778;2022-12-05T13:22:15;43.03;;;23.63;;
51292;SDS011;37377;45.186;9.778;2022-12-05T13:24:43;41.50;;;21.15;;
51292;SDS011;37377;45.186;9.778;2022-12-05T13:27:19;40.17;;;22.45;;
51292;SDS011;37377;45.186;9.778;2022-12-05T13:29:49;44.35;;;25.38;;
51292;SDS011;37377;45.186;9.778;2022-12-05T13:32:26;44.38;;;24.95;;
51292;SDS011;37377;45.186;9.778;2022-12-05T13:34:54;42.28;;;24.13;;
51292;SDS011;37377;45.186;9.778;2022-12-05T13:37:33;44.88;;;23.38;;
51292;SDS011;37377;45.186;9.778;2022-12-05T13:43:04;44.28;;;23.77;;
51292;SDS011;37377;45.186;9.778;2022-12-05T13:45:34;44.67;;;24.75;;
51292;SDS011;37377;45.186;9.778;2022-12-05T13:56:00;44.45;;;24.42;;
51292;SDS011;37377;45.186;9.778;2022-12-05T14:17:41;50.03;;;25.63;;
51292;SDS011;37377;45.186;9.778;2022-12-05T14:27:54;44.88;;;24.52;;
51292;SDS011;37377;45.186;9.778;2022-12-05T14:30:40;45.83;;;25.40;;
51292;SDS011;37377;45.186;9.778;2022-12-05T14:33:16;47.42;;;25.58;;
51292;SDS011;37377;45.186;9.778;2022-12-05T14:35:45;50.50;;;28.50;;
51292;SDS011;37377;45.186;9.778;2022-12-05T14:40:48;51.25;;;27.95;;
51292;SDS011;37377;45.186;9.778;2022-12-05T14:43:27;52.42;;;28.52;;
51292;SDS011;37377;45.186;9.778;2022-12-05T14:46:02;54.72;;;29.90;;
51292;SDS011;37377;45.186;9.778;2022-12-05T14:48:32;50.87;;;30.60;;
51292;SDS011;37377;45.186;9.778;2022-12-05T14:54:08;59.42;;;32.88;;
51292;SDS011;37377;45.186;9.778;2022-12-05T14:56:44;61.28;;;35.10;;
51292;SDS011;37377;45.186;9.778;2022-12-05T14:59:22;66.68;;;39.25;;
51292;SDS011;37377;45.186;9.778;2022-12-05T15:01:53;63.88;;;36.13;;
51292;SDS011;37377;45.186;9.778;2022-12-05T15:04:31;56.70;;;32.78;;
51292;SDS011;37377;45.186;9.778;2022-12-05T15:09:55;53.40;;;27.83;;
51292;SDS011;37377;45.186;9.778;2022-12-05T15:12:28;66.25;;;36.78;;
51292;SDS011;37377;45.186;9.778;2022-12-05T15:15:01;54.67;;;30.95;;
51292;SDS011;37377;45.186;9.778;2022-12-05T15:17:42;55.33;;;30.00;;
51292;SDS011;37377;45.186;9.778;2022-12-05T15:20:13;63.35;;;32.55;;
51292;SDS011;37377;45.186;9.778;2022-12-05T15:22:44;56.55;;;31.42;;
51292;SDS011;37377;45.186;9.778;2022-12-05T15:25:28;62.83;;;32.72;;
51292;SDS011;37377;45.186;9.778;2022-12-05T15:28:02;75.50;;;42.83;;
51292;SDS011;37377;45.186;9.778;2022-12-05T15:30:30;58.45;;;32.60;;
51292;SDS011;37377;45.186;9.778;2022-12-05T15:35:38;69.05;;;38.00;;
51292;SDS011;37377;45.186;9.778;2022-12-05T15:38:16;74.07;;;38.90;;
51292;SDS011;37377;45.186;9.778;2022-12-05T15:40:53;69.13;;;41.38;;
51292;SDS011;37377;45.186;9.778;2022-12-05T15:43:30;78.45;;;40.92;;
51292;SDS011;37377;45.186;9.778;2022-12-05T15:46:05;72.75;;;39.47;;
51292;SDS011;37377;45.186;9.778;2022-12-05T15:48:32;73.93;;;42.50;;
51292;SDS011;37377;45.186;9.778;2022-12-05T15:51:03;70.70;;;41.08;;
51292;SDS011;37377;45.186;9.778;2022-12-05T15:54:19;68.20;;;40.53;;
51292;SDS011;37377;45.186;9.778;2022-12-05T15:56:29;95.88;;;56.50;;
51292;SDS011;37377;45.186;9.778;2022-12-05T16:02:19;96.68;;;61.88;;
51292;SDS011;37377;45.186;9.778;2022-12-05T16:04:54;96.32;;;57.78;;
51292;SDS011;37377;45.186;9.778;2022-12-05T16:07:27;64.88;;;38.00;;
51292;SDS011;37377;45.186;9.778;2022-12-05T16:09:58;64.20;;;39.05;;
51292;SDS011;37377;45.186;9.778;2022-12-05T16:14:59;62.83;;;36.17;;
51292;SDS011;37377;45.186;9.778;2022-12-05T16:17:29;69.38;;;35.53;;
51292;SDS011;37377;45.186;9.778;2022-12-05T16:20:19;61.20;;;34.83;;
51292;SDS011;37377;45.186;9.778;2022-12-05T16:22:55;61.88;;;34.58;;
51292;SDS011;37377;45.186;9.778;2022-12-05T16:25:36;59.10;;;33.70;;
51292;SDS011;37377;45.186;9.778;2022-12-05T16:28:13;58.75;;;32.95;;
51292;SDS011;37377;45.186;9.778;2022-12-05T16:33:33;50.25;;;28.50;;
51292;SDS011;37377;45.186;9.778;2022-12-05T16:36:10;54.47;;;31.20;;
51292;SDS011;37377;45.186;9.778;2022-12-05T16:38:40;63.33;;;36.15;;
51292;SDS011;37377;45.186;9.778;2022-12-05T16:41:15;76.18;;;42.00;;
51292;SDS011;37377;45.186;9.778;2022-12-05T16:43:48;71.63;;;38.67;;
51292;SDS011;37377;45.186;9.778;2022-12-05T16:51:53;93.05;;;54.15;;
51292;SDS011;37377;45.186;9.778;2022-12-05T16:54:28;66.32;;;41.08;;
51292;SDS011;37377;45.186;9.778;2022-12-05T16:57:00;69.65;;;43.08;;
51292;SDS011;37377;45.186;9.778;2022-12-05T16:59:36;75.28;;;47.47;;
51292;SDS011;37377;45.186;9.778;2022-12-05T17:02:14;72.43;;;46.60;;
51292;SDS011;37377;45.186;9.778;2022-12-05T17:04:43;65.82;;;43.53;;
51292;SDS011;37377;45.186;9.778;2022-12-05T17:07:15;62.22;;;37.40;;
51292;SDS011;37377;45.186;9.778;2022-12-05T17:09:43;89.05;;;52.75;;
51292;SDS011;37377;45.186;9.778;2022-12-05T17:12:17;56.08;;;33.67;;
51292;SDS011;37377;45.186;9.778;2022-12-05T17:14:55;63.97;;;38.38;;
51292;SDS011;37377;45.186;9.778;2022-12-05T17:17:23;57.88;;;31.25;;
51292;SDS011;37377;45.186;9.778;2022-12-05T17:19:56;60.83;;;36.10;;
51292;SDS011;37377;45.186;9.778;2022-12-05T17:22:26;52.25;;;31.88;;
51292;SDS011;37377;45.186;9.778;2022-12-05T17:24:53;60.35;;;36.25;;
51292;SDS011;37377;45.186;9.778;2022-12-05T17:27:28;75.28;;;43.53;;
51292;SDS011;37377;45.186;9.778;2022-12-05T17:30:02;55.42;;;33.53;;
51292;SDS011;37377;45.186;9.778;2022-12-05T17:32:31;59.80;;;33.17;;
51292;SDS011;37377;45.186;9.778;2022-12-05T17:35:01;43.42;;;28.70;;
51292;SDS011;37377;45.186;9.778;2022-12-05T17:37:32;54.00;;;33.75;;
51292;SDS011;37377;45.186;9.778;2022-12-05T17:40:04;51.20;;;33.13;;
51292;SDS011;37377;45.186;9.778;2022-12-05T17:42:33;41.17;;;28.40;;
51292;SDS011;37377;45.186;9.778;2022-12-05T17:45:05;40.42;;;26.48;;
51292;SDS011;37377;45.186;9.778;2022-12-05T17:47:37;44.95;;;29.85;;
51292;SDS011;37377;45.186;9.778;2022-12-05T17:50:12;45.75;;;28.52;;
51292;SDS011;37377;45.186;9.778;2022-12-05T17:52:41;43.53;;;28.35;;